createdAt,value
2023-03-13T00:00:00.349Z,48.4
2023-03-13T00:01:01.472Z,47.9
2023-03-13T00:02:02.640Z,47.6
2023-03-13T00:03:03.446Z,47.5
2023-03-13T00:04:04.741Z,47.6
2023-03-13T00:05:05.518Z,47.4
2023-03-13T00:06:06.524Z,47.8
2023-03-13T00:07:07.392Z,48
2023-03-13T00:08:08.452Z,48.2
2023-03-13T00:09:09.465Z,48.4
2023-03-13T00:10:10.524Z,48.4
2023-03-13T00:11:11.445Z,48.2
2023-03-13T00:12:12.472Z,48.1
2023-03-13T00:13:13.488Z,48.4
2023-03-13T00:14:14.446Z,48.7
2023-03-13T00:15:15.502Z,48.5
2023-03-13T00:16:16.531Z,48.1
2023-03-13T00:17:17.470Z,48.2
2023-03-13T00:18:18.523Z,48.3
2023-03-13T00:19:19.409Z,48.2
2023-03-13T00:20:20.478Z,48.6
2023-03-13T00:21:21.470Z,48.6
2023-03-13T00:22:22.591Z,48.7
2023-03-13T00:23:23.542Z,48.9
2023-03-13T00:24:24.454Z,49
2023-03-13T00:25:25.452Z,49.1
2023-03-13T00:26:26.442Z,49.2
2023-03-13T00:27:27.544Z,49.4
2023-03-13T00:28:28.488Z,49.4
2023-03-13T00:29:29.562Z,49.3
2023-03-13T00:30:30.476Z,49.2
2023-03-13T00:31:31.620Z,49.2
2023-03-13T00:32:32.514Z,49.2
2023-03-13T00:33:33.462Z,48.8
2023-03-13T00:34:34.498Z,48.7
2023-03-13T00:35:35.500Z,48.8
2023-03-13T00:36:36.479Z,48.8
2023-03-13T00:37:37.458Z,48.6
2023-03-13T00:38:38.444Z,48.7
2023-03-13T00:39:39.456Z,48.8
2023-03-13T00:40:40.491Z,49.1
2023-03-13T00:41:41.518Z,49.2
2023-03-13T00:42:42.490Z,49.5
2023-03-13T00:43:43.444Z,49.6
2023-03-13T00:44:44.465Z,49.8
2023-03-13T00:45:45.502Z,49.6
2023-03-13T00:46:46.513Z,49.4
2023-03-13T00:47:47.540Z,49.3
2023-03-13T00:48:48.549Z,49
2023-03-13T00:49:49.502Z,49.5
2023-03-13T00:50:50.521Z,49.6
2023-03-13T00:51:51.459Z,49.5
2023-03-13T00:52:52.495Z,49.6
2023-03-13T00:53:53.467Z,49.7
2023-03-13T00:54:54.512Z,49.6
2023-03-13T00:55:55.581Z,49.7
2023-03-13T00:56:56.709Z,49.8
2023-03-13T00:57:57.521Z,49.8
2023-03-13T00:58:58.458Z,49.9
2023-03-13T00:59:59.504Z,50.2
2023-03-13T01:01:00.452Z,50.3
2023-03-13T01:02:01.512Z,50.1
2023-03-13T01:03:02.640Z,49.9
2023-03-13T01:04:03.437Z,50.1
2023-03-13T01:05:05.163Z,50.5
2023-03-13T01:06:06.411Z,50.6
2023-03-13T01:07:07.515Z,49.9
2023-03-13T01:08:08.467Z,50.4
2023-03-13T01:09:09.510Z,50.5
2023-03-13T01:10:10.468Z,50.5
2023-03-13T01:11:11.432Z,50.6
2023-03-13T01:12:12.482Z,50.4
2023-03-13T01:13:13.466Z,50.3
2023-03-13T01:14:14.478Z,50.1
2023-03-13T01:15:15.473Z,50
2023-03-13T01:16:16.620Z,50
2023-03-13T01:17:17.470Z,50.1
2023-03-13T01:18:18.526Z,50.2
2023-03-13T01:19:19.480Z,50.4
2023-03-13T01:20:20.543Z,50.5
2023-03-13T01:21:21.467Z,50.2
2023-03-13T01:22:22.584Z,50.1
2023-03-13T01:23:23.510Z,50.6
2023-03-13T01:24:24.493Z,50.7
2023-03-13T01:25:25.557Z,50.8
2023-03-13T01:26:26.523Z,50.7
2023-03-13T01:27:27.536Z,50.7
2023-03-13T01:28:28.672Z,50.7
2023-03-13T01:29:29.499Z,50.7
2023-03-13T01:30:30.470Z,50.9
2023-03-13T01:31:31.785Z,51.2
2023-03-13T01:32:32.559Z,51.5
2023-03-13T01:33:33.553Z,51.8
2023-03-13T01:34:34.576Z,52
2023-03-13T01:35:35.537Z,52
2023-03-13T01:36:36.419Z,52.1
2023-03-13T01:37:37.490Z,51.9
2023-03-13T01:38:38.536Z,51.5
2023-03-13T01:39:39.549Z,51.1
2023-03-13T01:40:40.517Z,51.6
2023-03-13T01:41:41.492Z,51.6
2023-03-13T01:42:42.651Z,51.5
2023-03-13T01:43:43.512Z,51.3
2023-03-13T01:44:44.510Z,51.4
2023-03-13T01:45:45.469Z,50.9
2023-03-13T01:46:46.513Z,51.3
2023-03-13T01:47:48.200Z,51.4
2023-03-13T01:48:48.531Z,51.5
2023-03-13T01:49:49.464Z,51
2023-03-13T01:50:50.496Z,51.3
2023-03-13T01:51:51.492Z,51.4
2023-03-13T01:52:52.502Z,51.4
2023-03-13T01:53:53.581Z,51.3
2023-03-13T01:54:54.582Z,51.2
2023-03-13T01:55:55.534Z,51.3
2023-03-13T01:56:56.545Z,51.6
2023-03-13T01:57:57.594Z,52
2023-03-13T01:58:58.471Z,52.2
2023-03-13T01:59:59.457Z,52.3
2023-03-13T02:01:00.426Z,52.2
2023-03-13T02:02:01.600Z,52.4
2023-03-13T02:03:02.651Z,52.6
2023-03-13T02:04:03.471Z,52.7
2023-03-13T02:05:05.018Z,52.8
2023-03-13T02:06:06.650Z,53
2023-03-13T02:07:07.450Z,53.2
2023-03-13T02:08:08.532Z,53.6
2023-03-13T02:09:09.490Z,53.9
2023-03-13T02:10:10.550Z,54.4
2023-03-13T02:11:11.552Z,54.7
2023-03-13T02:12:12.629Z,55.2
2023-03-13T02:13:13.669Z,55.7
2023-03-13T02:14:14.557Z,56
2023-03-13T02:15:15.534Z,56.1
2023-03-13T02:16:16.710Z,56.7
2023-03-13T02:17:17.528Z,57.2
2023-03-13T02:18:18.551Z,57.5
2023-03-13T02:19:19.549Z,57.7
2023-03-13T02:20:20.502Z,57.9
2023-03-13T02:21:21.512Z,58
2023-03-13T02:22:22.579Z,58.4
2023-03-13T02:23:23.648Z,58.8
2023-03-13T02:24:24.508Z,58.8
2023-03-13T02:25:25.574Z,58.6
2023-03-13T02:26:26.447Z,58.4
2023-03-13T02:27:27.525Z,58.3
2023-03-13T02:28:28.525Z,58
2023-03-13T02:29:29.564Z,58
2023-03-13T02:30:30.506Z,58
2023-03-13T02:31:31.683Z,58.1
2023-03-13T02:32:32.543Z,57.8
2023-03-13T02:33:33.487Z,57.7
2023-03-13T02:34:34.549Z,57.5
2023-03-13T02:35:35.586Z,57.6
2023-03-13T02:36:36.428Z,57.7
2023-03-13T02:37:37.528Z,57.6
2023-03-13T02:38:38.471Z,57.4
2023-03-13T02:39:39.669Z,57.4
2023-03-13T02:40:40.433Z,57.3
2023-03-13T02:41:41.487Z,57.2
2023-03-13T02:42:42.508Z,57.1
2023-03-13T02:43:43.578Z,57.2
2023-03-13T02:44:44.555Z,57.3
2023-03-13T02:45:45.529Z,57.4
2023-03-13T02:46:46.574Z,57.3
2023-03-13T02:47:47.525Z,57.2
2023-03-13T02:48:48.530Z,57.1
2023-03-13T02:49:49.511Z,56.8
2023-03-13T02:50:50.588Z,56.7
2023-03-13T02:51:51.451Z,56.6
2023-03-13T02:52:52.579Z,57
2023-03-13T02:53:53.558Z,57.1
2023-03-13T02:54:54.436Z,56.8
2023-03-13T02:55:55.581Z,56.4
2023-03-13T02:56:56.536Z,56.3
2023-03-13T02:57:57.703Z,56.3
2023-03-13T02:58:58.558Z,56.1
2023-03-13T02:59:59.573Z,55.7
2023-03-13T03:01:00.647Z,55.3
2023-03-13T03:02:01.585Z,55.1
2023-03-13T03:03:02.554Z,55
2023-03-13T03:04:03.821Z,54.9
2023-03-13T03:05:04.595Z,54.9
2023-03-13T03:06:05.537Z,53.7
2023-03-13T03:07:06.522Z,53.3
2023-03-13T03:08:07.525Z,53.2
2023-03-13T03:09:08.572Z,53
2023-03-13T03:10:09.595Z,52.7
2023-03-13T03:11:10.547Z,52.9
2023-03-13T03:12:11.518Z,52.9
2023-03-13T03:13:12.522Z,53
2023-03-13T03:14:13.579Z,52.8
2023-03-13T03:15:14.521Z,52.7
2023-03-13T03:16:15.572Z,52.7
2023-03-13T03:17:16.515Z,52.8
2023-03-13T03:18:17.574Z,53.3
2023-03-13T03:19:18.628Z,53.8
2023-03-13T03:20:19.615Z,54.2
2023-03-13T03:21:20.564Z,54.5
2023-03-13T03:22:21.555Z,54.6
2023-03-13T03:23:22.531Z,54.5
2023-03-13T03:24:23.599Z,54.4
2023-03-13T03:25:24.613Z,54.2
2023-03-13T03:26:25.552Z,54
2023-03-13T03:27:26.572Z,53.4
2023-03-13T03:28:27.534Z,52.7
2023-03-13T03:29:28.567Z,52.3
2023-03-13T03:30:29.675Z,52.3
2023-03-13T03:31:30.581Z,52.3
2023-03-13T03:32:31.647Z,52.3
2023-03-13T03:33:32.569Z,52.3
2023-03-13T03:34:33.541Z,51.8
2023-03-13T03:35:34.547Z,52.2
2023-03-13T03:36:35.642Z,52.1
2023-03-13T03:37:36.534Z,52
2023-03-13T03:38:37.544Z,52
2023-03-13T03:39:38.640Z,52.3
2023-03-13T03:40:39.549Z,52.3
2023-03-13T03:41:40.569Z,52.3
2023-03-13T03:42:41.571Z,52.2
2023-03-13T03:43:42.569Z,52.3
2023-03-13T03:44:43.594Z,52.4
2023-03-13T03:45:44.614Z,52.5
2023-03-13T03:46:45.610Z,52.8
2023-03-13T03:47:46.531Z,52.9
2023-03-13T03:48:47.553Z,53
2023-03-13T03:49:48.590Z,54
2023-03-13T03:50:49.561Z,53.8
2023-03-13T03:51:50.523Z,53.4
2023-03-13T03:52:51.882Z,53.1
2023-03-13T03:53:52.614Z,53
2023-03-13T03:54:53.567Z,53.1
2023-03-13T03:55:54.557Z,53.2
2023-03-13T03:56:55.609Z,54.2
2023-03-13T03:57:56.590Z,54.4
2023-03-13T03:58:57.625Z,54.5
2023-03-13T03:59:58.670Z,54.6
2023-03-13T04:00:59.534Z,55
2023-03-13T04:02:00.693Z,55
2023-03-13T04:03:01.626Z,55.1
2023-03-13T04:04:02.631Z,55.2
2023-03-13T04:05:03.590Z,55.2
2023-03-13T04:06:04.631Z,55.1
2023-03-13T04:07:05.587Z,54.9
2023-03-13T04:08:06.572Z,54.9
2023-03-13T04:09:07.591Z,55.1
2023-03-13T04:10:08.670Z,55.2
2023-03-13T04:11:09.612Z,55.2
2023-03-13T04:12:10.574Z,55.2
2023-03-13T04:13:11.632Z,55.1
2023-03-13T04:14:12.633Z,55.2
2023-03-13T04:15:13.692Z,54.6
2023-03-13T04:16:14.606Z,54.6
2023-03-13T04:17:15.631Z,55
2023-03-13T04:18:16.578Z,54.5
2023-03-13T04:19:17.642Z,53.8
2023-03-13T04:20:18.659Z,53.6
2023-03-13T04:21:19.575Z,53.6
2023-03-13T04:22:20.693Z,54.2
2023-03-13T04:23:21.635Z,54.8
2023-03-13T04:24:22.655Z,55
2023-03-13T04:25:23.710Z,54.9
2023-03-13T04:26:24.673Z,53.9
2023-03-13T04:27:25.636Z,53.4
2023-03-13T04:28:26.607Z,53.2
2023-03-13T04:29:27.558Z,53.2
2023-03-13T04:30:28.769Z,52.9
2023-03-13T04:31:29.576Z,52.9
2023-03-13T04:32:30.670Z,53
2023-03-13T04:33:31.613Z,52.9
2023-03-13T04:34:32.576Z,53.1
2023-03-13T04:35:33.731Z,53.1
2023-03-13T04:36:34.595Z,53.1
2023-03-13T04:37:35.588Z,53
2023-03-13T04:38:36.601Z,53.1
2023-03-13T04:39:37.640Z,53.1
2023-03-13T04:40:38.598Z,53.2
2023-03-13T04:41:39.616Z,53.4
2023-03-13T04:42:40.661Z,53.6
2023-03-13T04:43:41.614Z,53.6
2023-03-13T04:44:43.687Z,53.3
2023-03-13T04:45:43.692Z,53.2
2023-03-13T04:46:44.613Z,53
2023-03-13T04:47:45.608Z,53
2023-03-13T04:48:46.654Z,52.9
2023-03-13T04:49:47.593Z,52.9
2023-03-13T04:50:48.630Z,53
2023-03-13T04:51:49.662Z,53.1
2023-03-13T04:52:50.632Z,53
2023-03-13T04:53:51.612Z,53.2
2023-03-13T04:54:52.633Z,53.4
2023-03-13T04:55:53.655Z,53.5
2023-03-13T04:56:54.641Z,52.9
2023-03-13T04:57:55.595Z,53.2
2023-03-13T04:58:56.621Z,53
2023-03-13T04:59:57.633Z,53.2
2023-03-13T05:00:58.729Z,53.3
2023-03-13T05:01:59.603Z,53.1
2023-03-13T05:03:00.646Z,52.4
2023-03-13T05:04:01.643Z,52.7
2023-03-13T05:05:02.688Z,52.6
2023-03-13T05:06:03.598Z,52.5
2023-03-13T05:07:04.773Z,52.7
2023-03-13T05:08:05.595Z,53
2023-03-13T05:09:06.681Z,53.5
2023-03-13T05:10:07.636Z,53.6
2023-03-13T05:11:08.613Z,53.9
2023-03-13T05:12:09.798Z,53.9
2023-03-13T05:13:10.612Z,53.9
2023-03-13T05:14:11.760Z,53.9
2023-03-13T05:15:12.599Z,53.9
2023-03-13T05:16:13.837Z,54
2023-03-13T05:17:14.554Z,54.1
2023-03-13T05:18:15.613Z,53.9
2023-03-13T05:19:16.652Z,53.8
2023-03-13T05:20:17.575Z,53.8
2023-03-13T05:21:18.834Z,53.8
2023-03-13T05:22:19.905Z,53.5
2023-03-13T05:23:20.818Z,53.9
2023-03-13T05:24:21.582Z,54
2023-03-13T05:25:22.634Z,54
2023-03-13T05:26:23.833Z,53.9
2023-03-13T05:27:24.814Z,53.9
2023-03-13T05:28:25.705Z,53.8
2023-03-13T05:29:26.638Z,53.6
2023-03-13T05:30:27.656Z,53.5
2023-03-13T05:31:28.698Z,53.5
2023-03-13T05:32:29.636Z,53.5
2023-03-13T05:33:30.607Z,53.7
2023-03-13T05:34:31.745Z,53.6
2023-03-13T05:35:32.644Z,53.5
2023-03-13T05:36:33.640Z,53.4
2023-03-13T05:37:34.655Z,53.3
2023-03-13T05:38:35.567Z,53.2
2023-03-13T05:39:36.750Z,52.9
2023-03-13T05:40:37.637Z,52.8
2023-03-13T05:41:38.648Z,52.9
2023-03-13T05:42:39.721Z,53.2
2023-03-13T05:43:40.750Z,53.4
2023-03-13T05:44:41.673Z,53.4
2023-03-13T05:45:42.664Z,53.4
2023-03-13T05:46:43.743Z,53.4
2023-03-13T05:47:44.561Z,53.5
2023-03-13T05:48:45.646Z,53.5
2023-03-13T05:49:46.769Z,53.5
2023-03-13T05:50:47.654Z,53.5
2023-03-13T05:51:48.696Z,53.7
2023-03-13T05:52:49.652Z,53.8
2023-03-13T05:53:50.655Z,53.8
2023-03-13T05:54:51.651Z,52.8
2023-03-13T05:55:52.672Z,53.4
2023-03-13T05:56:53.696Z,53.1
2023-03-13T05:57:54.832Z,53.5
2023-03-13T05:58:55.629Z,53.9
2023-03-13T05:59:56.649Z,54
2023-03-13T06:00:57.610Z,53.7
2023-03-13T06:01:58.838Z,53.7
2023-03-13T06:02:59.711Z,53.6
2023-03-13T06:04:00.958Z,53.7
2023-03-13T06:05:01.730Z,53.7
2023-03-13T06:06:02.828Z,53.5
2023-03-13T06:07:03.764Z,53.4
2023-03-13T06:08:04.621Z,53.2
2023-03-13T06:09:05.647Z,53.1
2023-03-13T06:10:06.740Z,53.3
2023-03-13T06:11:07.646Z,53.2
2023-03-13T06:12:08.826Z,53.5
2023-03-13T06:13:19.193Z,53.8
2023-03-13T06:14:10.780Z,54
2023-03-13T06:15:12.265Z,53.8
2023-03-13T06:16:12.747Z,53.9
2023-03-13T06:17:13.693Z,54.2
2023-03-13T06:18:14.721Z,54.2
2023-03-13T06:19:15.606Z,54.3
2023-03-13T06:20:16.725Z,54.3
2023-03-13T06:21:17.633Z,54.4
2023-03-13T06:22:18.595Z,54.4
2023-03-13T06:23:19.666Z,54.4
2023-03-13T06:24:20.701Z,54.5
2023-03-13T06:25:21.628Z,54.6
2023-03-13T06:26:22.685Z,54.5
2023-03-13T06:27:23.746Z,54.2
2023-03-13T06:28:24.790Z,54.3
2023-03-13T06:29:25.633Z,54
2023-03-13T06:30:26.667Z,53.8
2023-03-13T06:31:27.675Z,53.8
2023-03-13T06:32:28.804Z,54
2023-03-13T06:33:29.684Z,53.9
2023-03-13T06:34:30.661Z,53.9
2023-03-13T06:35:31.650Z,53.9
2023-03-13T06:36:32.719Z,53.9
2023-03-13T06:37:33.749Z,53.7
2023-03-13T06:38:34.865Z,53.4
2023-03-13T06:39:35.676Z,53.4
2023-03-13T06:40:36.734Z,53.2
2023-03-13T06:41:37.673Z,53.2
2023-03-13T06:42:38.914Z,53.1
2023-03-13T06:43:39.741Z,53
2023-03-13T06:44:40.726Z,53
2023-03-13T06:45:41.638Z,52.6
2023-03-13T06:46:42.762Z,52.7
2023-03-13T06:47:43.735Z,52.6
2023-03-13T06:48:44.589Z,52.5
2023-03-13T06:49:45.692Z,52.6
2023-03-13T06:50:46.653Z,52.5
2023-03-13T06:51:47.687Z,52.6
2023-03-13T06:52:48.628Z,53.1
2023-03-13T06:53:49.577Z,53.4
2023-03-13T06:54:50.737Z,53.4
2023-03-13T06:55:51.652Z,53.4
2023-03-13T06:56:52.717Z,53.4
2023-03-13T06:57:53.725Z,53.1
2023-03-13T06:58:54.686Z,53.2
2023-03-13T06:59:55.613Z,53.3
2023-03-13T07:00:56.779Z,53.2
2023-03-13T07:01:57.643Z,53.1
2023-03-13T07:02:58.693Z,53.1
2023-03-13T07:03:59.826Z,53.2
2023-03-13T07:05:00.657Z,53.7
2023-03-13T07:06:01.668Z,54
2023-03-13T07:07:02.672Z,54.2
2023-03-13T07:08:03.665Z,53.9
2023-03-13T07:09:04.753Z,54
2023-03-13T07:10:05.646Z,53.9
2023-03-13T07:11:06.831Z,54.1
2023-03-13T07:12:07.635Z,54.4
2023-03-13T07:13:08.633Z,54
2023-03-13T07:14:16.833Z,53.7
2023-03-13T07:15:10.663Z,53.4
2023-03-13T07:16:11.708Z,53.1
2023-03-13T07:17:12.709Z,53
2023-03-13T07:18:13.689Z,53.2
2023-03-13T07:19:14.736Z,53.4
2023-03-13T07:20:17.275Z,52.6
2023-03-13T07:21:16.759Z,52.8
2023-03-13T07:22:17.675Z,52.8
2023-03-13T07:23:18.781Z,52.4
2023-03-13T07:24:19.736Z,51.8
2023-03-13T07:25:20.667Z,51.8
2023-03-13T07:26:21.735Z,51.3
2023-03-13T07:27:22.815Z,51.8
2023-03-13T07:28:23.763Z,51.3
2023-03-13T07:29:24.795Z,51.1
2023-03-13T07:30:25.730Z,51
2023-03-13T07:31:26.778Z,50.9
2023-03-13T07:32:28.822Z,50.9
2023-03-13T07:33:28.770Z,51
2023-03-13T07:34:29.689Z,51.1
2023-03-13T07:35:30.773Z,51.5
2023-03-13T07:36:31.815Z,52.2
2023-03-13T07:37:32.802Z,52.3
2023-03-13T07:38:33.677Z,51.5
2023-03-13T07:39:34.644Z,50.8
2023-03-13T07:40:35.753Z,50.8
2023-03-13T07:41:38.373Z,50.9
2023-03-13T07:42:37.684Z,50.6
2023-03-13T07:43:38.735Z,50.7
2023-03-13T07:44:39.673Z,50.8
2023-03-13T07:45:40.823Z,51.2
2023-03-13T07:46:41.657Z,51.1
2023-03-13T07:47:42.710Z,50.8
2023-03-13T07:48:43.803Z,50.8
2023-03-13T07:49:44.693Z,51
2023-03-13T07:50:45.701Z,51.1
2023-03-13T07:51:46.715Z,50.8
2023-03-13T07:52:47.749Z,50.7
2023-03-13T07:53:48.779Z,50.8
2023-03-13T07:54:49.748Z,51
2023-03-13T07:55:50.753Z,51
2023-03-13T07:56:51.755Z,50.7
2023-03-13T07:57:52.679Z,51.1
2023-03-13T07:58:53.630Z,51.2
2023-03-13T07:59:54.626Z,50.9
2023-03-13T08:00:55.625Z,50.7
2023-03-13T08:01:56.670Z,50.5
2023-03-13T08:02:57.683Z,50.6
2023-03-13T08:03:58.883Z,50.9
2023-03-13T08:04:59.650Z,50.9
2023-03-13T08:06:00.742Z,51.2
2023-03-13T08:07:01.713Z,51.3
2023-03-13T08:08:02.819Z,51.3
2023-03-13T08:09:03.637Z,51.4
2023-03-13T08:10:04.775Z,50.7
2023-03-13T08:11:06.517Z,50.8
2023-03-13T08:12:07.788Z,51
2023-03-13T08:13:09.002Z,50.9
2023-03-13T08:14:09.673Z,50.1
2023-03-13T08:15:11.021Z,50.3
2023-03-13T08:16:11.944Z,50.4
2023-03-13T08:17:12.669Z,50.4
2023-03-13T08:18:13.659Z,50.5
2023-03-13T08:19:14.653Z,50.5
2023-03-13T08:20:15.719Z,50.4
2023-03-13T08:21:16.648Z,50.3
2023-03-13T08:22:17.795Z,50.3
2023-03-13T08:23:18.708Z,50.1
2023-03-13T08:24:19.674Z,49.6
2023-03-13T08:25:20.660Z,49.6
2023-03-13T08:26:21.646Z,49.5
2023-03-13T08:27:22.888Z,49.4
2023-03-13T08:28:23.693Z,49.2
2023-03-13T08:29:24.672Z,49.1
2023-03-13T08:30:25.718Z,49.3
2023-03-13T08:31:26.723Z,49.3
2023-03-13T08:32:27.782Z,49.2
2023-03-13T08:33:28.668Z,49.1
2023-03-13T08:34:29.638Z,49.1
2023-03-13T08:35:30.667Z,48.9
2023-03-13T08:36:31.679Z,48.7
2023-03-13T08:37:32.707Z,48.7
2023-03-13T08:38:33.720Z,48.9
2023-03-13T08:39:34.754Z,49.1
2023-03-13T08:40:35.698Z,49
2023-03-13T08:41:36.882Z,49
2023-03-13T08:42:37.676Z,49
2023-03-13T08:43:38.655Z,48.9
2023-03-13T08:44:39.704Z,48.8
2023-03-13T08:45:40.749Z,48.4
2023-03-13T08:46:41.959Z,48.5
2023-03-13T08:47:42.821Z,48.7
2023-03-13T08:48:43.724Z,48.7
2023-03-13T08:49:44.710Z,48.6
2023-03-13T08:50:45.699Z,48.1
2023-03-13T08:51:46.752Z,48.5
2023-03-13T08:52:47.674Z,48.6
2023-03-13T08:53:48.801Z,48.7
2023-03-13T08:54:49.715Z,48.8
2023-03-13T08:55:50.695Z,48.7
2023-03-13T08:56:51.732Z,48.5
2023-03-13T08:57:52.803Z,48.4
2023-03-13T08:58:53.874Z,48.5
2023-03-13T08:59:54.801Z,48
2023-03-13T09:00:55.773Z,48
2023-03-13T09:01:56.800Z,48.2
2023-03-13T09:02:57.807Z,48.1
2023-03-13T09:04:00.566Z,47.8
2023-03-13T09:04:59.878Z,47.7
2023-03-13T09:06:00.826Z,47.8
2023-03-13T09:07:01.763Z,47.7
2023-03-13T09:08:02.687Z,47.5
2023-03-13T09:09:03.982Z,47.6
2023-03-13T09:10:04.696Z,48.1
2023-03-13T09:11:05.754Z,48.1
2023-03-13T09:12:06.758Z,48.1
2023-03-13T09:13:07.644Z,47.5
2023-03-13T09:14:08.821Z,47.8
2023-03-13T09:15:09.692Z,47.6
2023-03-13T09:16:10.834Z,47.6
2023-03-13T09:17:11.910Z,47.6
2023-03-13T09:18:12.883Z,46.9
2023-03-13T09:19:13.686Z,46.5
2023-03-13T09:20:14.783Z,46.3
2023-03-13T09:21:15.692Z,46.4
2023-03-13T09:22:16.704Z,46.2
2023-03-13T09:23:17.678Z,45.8
2023-03-13T09:24:18.748Z,46
2023-03-13T09:25:19.725Z,46.3
2023-03-13T09:26:22.910Z,46.2
2023-03-13T09:27:21.858Z,45.9
2023-03-13T09:28:22.722Z,45.5
2023-03-13T09:29:23.722Z,46.1
2023-03-13T09:30:24.700Z,46
2023-03-13T09:31:25.884Z,45.8
2023-03-13T09:32:26.744Z,45.6
2023-03-13T09:33:27.749Z,45.9
2023-03-13T09:34:28.764Z,45.9
2023-03-13T09:35:29.663Z,46
2023-03-13T09:36:30.681Z,45.6
2023-03-13T09:37:31.841Z,45.3
2023-03-13T09:38:32.893Z,45.1
2023-03-13T09:39:33.702Z,45
2023-03-13T09:40:34.877Z,44.9
2023-03-13T09:41:35.759Z,45.4
2023-03-13T09:42:36.731Z,45.6
2023-03-13T09:43:37.798Z,45.4
2023-03-13T09:44:38.792Z,45
2023-03-13T09:45:39.720Z,45.4
2023-03-13T09:46:40.944Z,45.8
2023-03-13T09:47:41.687Z,46
2023-03-13T09:48:42.836Z,46.2
2023-03-13T09:49:43.697Z,46.3
2023-03-13T09:50:44.729Z,46.3
2023-03-13T09:51:45.808Z,45.9
2023-03-13T09:52:46.829Z,45.7
2023-03-13T09:53:47.681Z,46.2
2023-03-13T09:54:48.721Z,46.1
2023-03-13T09:55:49.681Z,46
2023-03-13T09:56:50.694Z,45.9
2023-03-13T09:57:51.780Z,46.2
2023-03-13T09:58:52.712Z,45.8
2023-03-13T09:59:53.817Z,46.5
2023-03-13T10:00:54.719Z,46.8
2023-03-13T10:01:55.819Z,46.8
2023-03-13T10:02:56.676Z,46.9
2023-03-13T10:03:57.759Z,46.3
2023-03-13T10:04:58.832Z,46.3
2023-03-13T10:05:59.900Z,46.2
2023-03-13T10:07:00.895Z,46.2
2023-03-13T10:08:01.814Z,46.4
2023-03-13T10:09:02.767Z,46.6
2023-03-13T10:10:04.800Z,46.7
2023-03-13T10:11:04.803Z,46.4
2023-03-13T10:12:05.752Z,46.3
2023-03-13T10:13:06.760Z,46.4
2023-03-13T10:14:07.828Z,46.6
2023-03-13T10:15:08.709Z,46.8
2023-03-13T10:16:09.851Z,46.9
2023-03-13T10:17:10.736Z,47
2023-03-13T10:18:11.835Z,47.1
2023-03-13T10:19:12.841Z,47
2023-03-13T10:20:13.797Z,47.1
2023-03-13T10:21:14.729Z,47.3
2023-03-13T10:22:15.769Z,47.8
2023-03-13T10:23:16.761Z,48.5
2023-03-13T10:24:17.762Z,48.7
2023-03-13T10:25:18.727Z,49.3
2023-03-13T10:26:19.761Z,49
2023-03-13T10:27:20.786Z,49.3
2023-03-13T10:28:21.723Z,49.1
2023-03-13T10:29:22.755Z,49.2
2023-03-13T10:30:23.759Z,49.8
2023-03-13T10:31:24.842Z,50.2
2023-03-13T10:32:25.875Z,50.7
2023-03-13T10:33:26.802Z,51
2023-03-13T10:34:27.699Z,51.2
2023-03-13T10:35:28.754Z,51.5
2023-03-13T10:36:29.745Z,51.3
2023-03-13T10:37:30.915Z,51.6
2023-03-13T10:38:31.832Z,51.4
2023-03-13T10:39:32.852Z,52.2
2023-03-13T10:40:33.821Z,52.3
2023-03-13T10:41:34.852Z,52.5
2023-03-13T10:42:35.857Z,52.4
2023-03-13T10:43:36.835Z,52.8
2023-03-13T10:44:37.887Z,52.7
2023-03-13T10:45:39.023Z,52.9
2023-03-13T10:46:39.937Z,53
2023-03-13T10:47:40.834Z,53.1
2023-03-13T10:48:41.849Z,53.1
2023-03-13T10:49:42.849Z,52.5
2023-03-13T10:50:43.967Z,53.2
2023-03-13T10:51:44.983Z,53.5
2023-03-13T10:52:46.107Z,53.9
2023-03-13T10:53:46.775Z,53.3
2023-03-13T10:54:47.807Z,53.8
2023-03-13T10:55:48.857Z,54.1
2023-03-13T10:56:49.889Z,54.2
2023-03-13T10:57:50.903Z,54.2
2023-03-13T10:58:51.874Z,54.6
2023-03-13T10:59:52.805Z,54.6
2023-03-13T11:00:53.807Z,54.1
2023-03-13T11:01:54.752Z,54.2
2023-03-13T11:02:55.873Z,54.7
2023-03-13T11:03:56.982Z,54.9
2023-03-13T11:04:57.869Z,55.1
2023-03-13T11:05:58.705Z,54.9
2023-03-13T11:06:59.921Z,55.1
2023-03-13T11:08:00.937Z,55.2
2023-03-13T11:09:01.869Z,55.4
2023-03-13T11:10:02.850Z,55.4
2023-03-13T11:11:03.827Z,55.2
2023-03-13T11:12:04.892Z,55.6
2023-03-13T11:13:05.828Z,55.8
2023-03-13T11:14:06.836Z,55.8
2023-03-13T11:15:07.992Z,55.9
2023-03-13T11:16:08.961Z,56.3
2023-03-13T11:17:09.864Z,56.2
2023-03-13T11:18:10.867Z,56.3
2023-03-13T11:19:11.921Z,56.3
2023-03-13T11:20:12.829Z,56
2023-03-13T11:21:18.268Z,55.8
2023-03-13T11:22:15.018Z,55.7
2023-03-13T11:23:15.924Z,55.6
2023-03-13T11:24:16.929Z,55.7
2023-03-13T11:25:18.030Z,55.7
2023-03-13T11:26:18.896Z,55.6
2023-03-13T11:27:19.870Z,55.5
2023-03-13T11:28:20.879Z,55.1
2023-03-13T11:29:21.872Z,55
2023-03-13T11:30:22.770Z,54.6
2023-03-13T11:31:23.985Z,54
2023-03-13T11:32:24.961Z,54.4
2023-03-13T11:33:28.558Z,54.4
2023-03-13T11:34:29.910Z,54.4
2023-03-13T11:35:30.886Z,54.1
2023-03-13T11:36:31.966Z,54.3
2023-03-13T11:37:32.912Z,54.6
2023-03-13T11:38:33.967Z,54.5
2023-03-13T11:39:34.854Z,54.3
2023-03-13T11:40:35.896Z,54.4
2023-03-13T11:41:36.954Z,54.1
2023-03-13T11:42:38.097Z,53.8
2023-03-13T11:43:41.017Z,53.9
2023-03-13T11:44:39.919Z,54
2023-03-13T11:45:40.898Z,53.7
2023-03-13T11:46:41.970Z,53.3
2023-03-13T11:47:42.788Z,53.3
2023-03-13T11:48:43.863Z,53
2023-03-13T11:49:44.930Z,53
2023-03-13T11:50:45.848Z,52.9
2023-03-13T11:51:46.950Z,52.8
2023-03-13T11:52:47.968Z,52.5
2023-03-13T11:53:48.929Z,52.3
2023-03-13T11:54:49.835Z,51.5
2023-03-13T11:55:50.885Z,52
2023-03-13T11:56:51.991Z,51.4
2023-03-13T11:57:53.033Z,51.4
2023-03-13T11:58:53.968Z,51.4
2023-03-13T11:59:54.990Z,51.3
2023-03-13T12:00:56.004Z,51.2
2023-03-13T12:01:56.855Z,50.8
2023-03-13T12:02:58.039Z,51.1
2023-03-13T12:03:59.004Z,50.8
2023-03-13T12:05:00.009Z,51.1
2023-03-13T12:06:00.876Z,52
2023-03-13T12:07:04.235Z,52.1
2023-03-13T12:08:02.865Z,51.8
2023-03-13T12:09:03.769Z,51.8
2023-03-13T12:10:04.831Z,51.3
2023-03-13T12:11:05.880Z,51.2
2023-03-13T12:12:06.887Z,51.4
2023-03-13T12:13:08.005Z,51.5
2023-03-13T12:14:08.788Z,51.6
2023-03-13T12:15:09.867Z,51.6
2023-03-13T12:16:10.999Z,51.8
2023-03-13T12:17:11.917Z,51.9
2023-03-13T12:18:12.876Z,51.7
2023-03-13T12:19:13.876Z,51.7
2023-03-13T12:20:14.992Z,51.8
2023-03-13T12:21:15.793Z,51.7
2023-03-13T12:22:16.837Z,51.7
2023-03-13T12:23:17.957Z,51.5
2023-03-13T12:24:18.922Z,51.6
2023-03-13T12:25:19.884Z,51.6
2023-03-13T12:26:21.011Z,51.9
2023-03-13T12:27:21.805Z,52.1
2023-03-13T12:28:24.045Z,52.3
2023-03-13T12:29:23.890Z,52.2
2023-03-13T12:30:24.851Z,52
2023-03-13T12:31:25.849Z,51.9
2023-03-13T12:32:27.028Z,52
2023-03-13T12:33:27.912Z,51.8
2023-03-13T12:34:28.881Z,51.5
2023-03-13T12:35:29.888Z,51.1
2023-03-13T12:36:31.130Z,51.2
2023-03-13T12:37:31.944Z,50.8
2023-03-13T12:38:33.108Z,50.8
2023-03-13T12:39:33.772Z,50.5
2023-03-13T12:40:34.815Z,50.4
2023-03-13T12:41:35.842Z,50
2023-03-13T12:42:37.193Z,50
2023-03-13T12:43:37.934Z,50.2
2023-03-13T12:44:38.893Z,50.2
2023-03-13T12:45:39.944Z,50
2023-03-13T12:46:41.067Z,50.3
2023-03-13T12:47:41.972Z,50.2
2023-03-13T12:48:42.977Z,50.1
2023-03-13T12:49:43.966Z,50.1
2023-03-13T12:50:44.898Z,50.3
2023-03-13T12:51:45.999Z,50.5
2023-03-13T12:52:46.914Z,50.9
2023-03-13T12:53:48.064Z,51.3
2023-03-13T12:54:48.994Z,51.7
2023-03-13T12:55:49.916Z,52
2023-03-13T12:56:51.114Z,52.3
2023-03-13T12:57:52.009Z,52.4
2023-03-13T12:58:52.845Z,52.4
2023-03-13T12:59:53.883Z,52.5
2023-03-13T13:00:54.994Z,52.3
2023-03-13T13:01:56.075Z,52.2
2023-03-13T13:02:56.917Z,52
2023-03-13T13:03:57.931Z,52.4
2023-03-13T13:04:58.937Z,52.2
2023-03-13T13:05:59.968Z,51.8
2023-03-13T13:07:01.035Z,51.5
2023-03-13T13:08:01.975Z,51.4
2023-03-13T13:09:02.929Z,51.6
2023-03-13T13:10:03.882Z,51.5
2023-03-13T13:11:04.859Z,51.5
2023-03-13T13:12:05.881Z,51.6
2023-03-13T13:13:07.028Z,51.5
2023-03-13T13:14:08.057Z,51.4
2023-03-13T13:15:09.051Z,51.5
2023-03-13T13:16:10.007Z,51.1
2023-03-13T13:17:11.541Z,51.1
2023-03-13T13:18:13.283Z,51.2
2023-03-13T13:19:14.968Z,51.3
2023-03-13T13:20:16.311Z,51.7
2023-03-13T13:21:18.079Z,51.9
2023-03-13T13:22:18.970Z,51.5
2023-03-13T13:23:20.270Z,51.4
2023-03-13T13:24:21.949Z,51.2
2023-03-13T13:25:22.928Z,51.1
2023-03-13T13:26:23.890Z,51.1
2023-03-13T13:27:24.887Z,51.2
2023-03-13T13:28:25.876Z,51.1
2023-03-13T13:29:26.907Z,51.1
2023-03-13T13:30:27.973Z,51.3
2023-03-13T13:31:29.114Z,51.3
2023-03-13T13:32:30.044Z,51.3
2023-03-13T13:33:31.152Z,51.3
2023-03-13T13:34:31.971Z,51.4
2023-03-13T13:35:32.892Z,51.3
2023-03-13T13:36:33.906Z,51.1
2023-03-13T13:37:34.925Z,50.8